sensor_id;sensor_type;location;lat;lon;timestamp;pressure;altitude;pressure_sealevel;temperature;humidity
8075;BME280;4080;42.676;23.372;2022-08-21T00:01:24;94587.53;;;21.07;100.00
8075;BME280;4080;42.676;23.372;2022-08-21T00:03:52;94601.78;;;21.24;100.00
8075;BME280;4080;42.676;23.372;2022-08-21T00:06:20;94594.44;;;21.36;100.00
8075;BME280;4080;42.676;23.372;2022-08-21T00:08:47;94575.50;;;21.45;100.00
8075;BME280;4080;42.676;23.372;2022-08-21T00:11:14;94586.66;;;21.47;100.00
8075;BME280;4080;42.676;23.372;2022-08-21T00:13:41;94537.63;;;20.87;100.00
8075;BME280;4080;42.676;23.372;2022-08-21T00:16:08;94574.50;;;20.78;100.00
8075;BME280;4080;42.676;23.372;2022-08-21T00:18:36;94580.22;;;20.49;100.00
8075;BME280;4080;42.676;23.372;2022-08-21T00:21:04;94560.25;;;20.46;100.00
8075;BME280;4080;42.676;23.372;2022-08-21T00:23:33;94575.59;;;20.89;100.00
8075;BME280;4080;42.676;23.372;2022-08-21T00:26:00;94569.41;;;21.17;100.00
8075;BME280;4080;42.676;23.372;2022-08-21T00:28:27;94572.53;;;21.34;100.00
8075;BME280;4080;42.676;23.372;2022-08-21T00:30:53;94568.47;;;21.56;100.00
8075;BME280;4080;42.676;23.372;2022-08-21T00:33:22;94571.75;;;21.34;100.00
8075;BME280;4080;42.676;23.372;2022-08-21T00:35:50;94570.56;;;21.31;100.00
8075;BME280;4080;42.676;23.372;2022-08-21T00:38:17;94568.72;;;21.20;100.00
8075;BME280;4080;42.676;23.372;2022-08-21T00:40:46;94561.59;;;20.96;100.00
8075;BME280;4080;42.676;23.372;2022-08-21T00:43:18;94560.75;;;20.64;100.00
8075;BME280;4080;42.676;23.372;2022-08-21T00:45:47;94569.63;;;20.40;100.00
8075;BME280;4080;42.676;23.372;2022-08-21T00:48:13;94566.44;;;20.22;100.00
8075;BME280;4080;42.676;23.372;2022-08-21T00:50:44;94572.81;;;20.05;100.00
8075;BME280;4080;42.676;23.372;2022-08-21T00:53:14;94573.19;;;19.92;100.00
8075;BME280;4080;42.676;23.372;2022-08-21T00:55:41;94582.66;;;19.89;100.00
8075;BME280;4080;42.676;23.372;2022-08-21T00:58:11;94560.34;;;19.85;100.00
8075;BME280;4080;42.676;23.372;2022-08-21T01:00:41;94568.59;;;20.04;100.00
8075;BME280;4080;42.676;23.372;2022-08-21T01:03:13;94529.91;;;20.30;100.00
8075;BME280;4080;42.676;23.372;2022-08-21T01:05:41;94567.63;;;20.93;100.00
8075;BME280;4080;42.676;23.372;2022-08-21T01:08:08;94565.88;;;21.28;100.00
8075;BME280;4080;42.676;23.372;2022-08-21T01:10:37;94552.81;;;21.58;100.00
8075;BME280;4080;42.676;23.372;2022-08-21T01:13:06;94547.16;;;21.79;100.00
8075;BME280;4080;42.676;23.372;2022-08-21T01:15:36;94535.59;;;21.94;100.00
8075;BME280;4080;42.676;23.372;2022-08-21T01:18:06;94553.34;;;22.34;100.00
8075;BME280;4080;42.676;23.372;2022-08-21T01:20:36;94562.97;;;22.54;100.00
8075;BME280;4080;42.676;23.372;2022-08-21T01:23:05;94534.25;;;22.58;100.00
8075;BME280;4080;42.676;23.372;2022-08-21T01:25:32;94558.72;;;22.73;100.00
8075;BME280;4080;42.676;23.372;2022-08-21T01:28:04;94552.63;;;22.56;100.00
8075;BME280;4080;42.676;23.372;2022-08-21T01:30:34;94548.25;;;22.68;100.00
8075;BME280;4080;42.676;23.372;2022-08-21T01:33:02;94549.81;;;22.88;100.00
8075;BME280;4080;42.676;23.372;2022-08-21T01:35:29;94547.69;;;22.97;100.00
8075;BME280;4080;42.676;23.372;2022-08-21T01:37:56;94552.47;;;23.07;100.00
8075;BME280;4080;42.676;23.372;2022-08-21T01:40:24;94560.72;;;23.18;100.00
8075;BME280;4080;42.676;23.372;2022-08-21T01:42:51;94565.63;;;23.12;100.00
8075;BME280;4080;42.676;23.372;2022-08-21T01:45:19;94569.28;;;22.81;100.00
8075;BME280;4080;42.676;23.372;2022-08-21T01:47:46;94562.59;;;22.56;100.00
8075;BME280;4080;42.676;23.372;2022-08-21T01:50:17;94560.78;;;22.41;100.00
8075;BME280;4080;42.676;23.372;2022-08-21T01:52:45;94555.44;;;22.25;100.00
8075;BME280;4080;42.676;23.372;2022-08-21T01:55:14;94556.00;;;21.99;100.00
8075;BME280;4080;42.676;23.372;2022-08-21T01:57:43;94555.38;;;21.70;100.00
8075;BME280;4080;42.676;23.372;2022-08-21T02:00:14;94562.88;;;21.46;100.00
8075;BME280;4080;42.676;23.372;2022-08-21T02:02:42;94504.13;;;20.81;100.00
8075;BME280;4080;42.676;23.372;2022-08-21T02:05:10;94560.03;;;21.11;100.00
8075;BME280;4080;42.676;23.372;2022-08-21T02:07:38;94558.81;;;21.08;100.00
8075;BME280;4080;42.676;23.372;2022-08-21T02:10:08;94535.63;;;20.84;100.00
8075;BME280;4080;42.676;23.372;2022-08-21T02:12:35;94565.66;;;20.90;100.00
8075;BME280;4080;42.676;23.372;2022-08-21T02:15:05;94575.41;;;20.82;100.00
8075;BME280;4080;42.676;23.372;2022-08-21T02:17:38;94566.03;;;20.76;100.00
8075;BME280;4080;42.676;23.372;2022-08-21T02:20:06;94568.88;;;20.67;100.00
8075;BME280;4080;42.676;23.372;2022-08-21T02:22:33;94573.09;;;20.68;100.00
8075;BME280;4080;42.676;23.372;2022-08-21T02:25:00;94561.94;;;20.66;100.00
8075;BME280;4080;42.676;23.372;2022-08-21T02:27:27;94561.44;;;20.76;100.00
8075;BME280;4080;42.676;23.372;2022-08-21T02:29:56;94574.56;;;20.94;100.00
8075;BME280;4080;42.676;23.372;2022-08-21T02:32:25;94553.50;;;20.80;100.00
8075;BME280;4080;42.676;23.372;2022-08-21T02:34:52;94590.81;;;21.01;100.00
8075;BME280;4080;42.676;23.372;2022-08-21T02:37:19;94583.81;;;20.96;100.00
8075;BME280;4080;42.676;23.372;2022-08-21T02:39:46;94577.41;;;21.01;100.00
8075;BME280;4080;42.676;23.372;2022-08-21T02:42:13;94571.22;;;21.13;100.00
8075;BME280;4080;42.676;23.372;2022-08-21T02:44:40;94575.91;;;21.31;100.00
8075;BME280;4080;42.676;23.372;2022-08-21T02:47:07;94576.00;;;21.35;100.00
8075;BME280;4080;42.676;23.372;2022-08-21T02:49:35;94518.59;;;21.08;100.00
8075;BME280;4080;42.676;23.372;2022-08-21T02:52:02;94561.75;;;21.47;100.00
8075;BME280;4080;42.676;23.372;2022-08-21T02:54:31;94563.28;;;21.48;100.00
8075;BME280;4080;42.676;23.372;2022-08-21T02:56:58;94581.13;;;21.56;100.00
8075;BME280;4080;42.676;23.372;2022-08-21T02:59:25;94572.41;;;21.43;100.00
8075;BME280;4080;42.676;23.372;2022-08-21T03:01:52;94573.59;;;21.30;100.00
8075;BME280;4080;42.676;23.372;2022-08-21T03:04:19;94585.84;;;21.15;100.00
8075;BME280;4080;42.676;23.372;2022-08-21T03:06:47;94585.19;;;21.06;100.00
8075;BME280;4080;42.676;23.372;2022-08-21T03:09:14;94582.09;;;21.04;100.00
8075;BME280;4080;42.676;23.372;2022-08-21T03:11:41;94572.56;;;20.91;100.00
8075;BME280;4080;42.676;23.372;2022-08-21T03:14:07;94565.66;;;21.05;100.00
8075;BME280;4080;42.676;23.372;2022-08-21T03:16:34;94576.28;;;21.30;100.00
8075;BME280;4080;42.676;23.372;2022-08-21T03:19:01;94579.13;;;21.37;100.00
8075;BME280;4080;42.676;23.372;2022-08-21T03:21:28;94576.88;;;21.23;100.00
8075;BME280;4080;42.676;23.372;2022-08-21T03:23:57;94572.91;;;21.05;100.00
8075;BME280;4080;42.676;23.372;2022-08-21T03:26:23;94570.31;;;20.93;100.00
8075;BME280;4080;42.676;23.372;2022-08-21T03:28:50;94584.16;;;20.95;100.00
8075;BME280;4080;42.676;23.372;2022-08-21T03:31:17;94588.56;;;20.87;100.00
8075;BME280;4080;42.676;23.372;2022-08-21T03:33:44;94568.38;;;20.77;100.00
8075;BME280;4080;42.676;23.372;2022-08-21T03:36:11;94579.53;;;20.80;100.00
8075;BME280;4080;42.676;23.372;2022-08-21T03:38:38;94577.53;;;20.76;100.00
8075;BME280;4080;42.676;23.372;2022-08-21T03:41:07;94575.44;;;20.70;100.00
8075;BME280;4080;42.676;23.372;2022-08-21T03:43:35;94540.03;;;20.49;100.00
8075;BME280;4080;42.676;23.372;2022-08-21T03:46:02;94576.22;;;20.70;100.00
8075;BME280;4080;42.676;23.372;2022-08-21T03:48:30;94577.31;;;20.54;100.00
8075;BME280;4080;42.676;23.372;2022-08-21T03:50:56;94577.44;;;20.45;100.00
8075;BME280;4080;42.676;23.372;2022-08-21T03:53:23;94529.34;;;19.96;100.00
8075;BME280;4080;42.676;23.372;2022-08-21T03:55:52;94530.56;;;19.87;100.00
8075;BME280;4080;42.676;23.372;2022-08-21T03:58:25;94581.41;;;20.11;100.00
8075;BME280;4080;42.676;23.372;2022-08-21T04:00:55;94592.34;;;20.06;100.00
8075;BME280;4080;42.676;23.372;2022-08-21T04:03:23;94590.00;;;20.04;100.00
8075;BME280;4080;42.676;23.372;2022-08-21T04:05:50;94595.25;;;20.01;100.00
8075;BME280;4080;42.676;23.372;2022-08-21T04:08:17;94583.00;;;20.00;100.00
8075;BME280;4080;42.676;23.372;2022-08-21T04:10:46;94593.81;;;20.03;100.00
8075;BME280;4080;42.676;23.372;2022-08-21T04:13:13;94600.72;;;20.04;100.00
8075;BME280;4080;42.676;23.372;2022-08-21T04:15:42;94592.25;;;20.02;100.00
8075;BME280;4080;42.676;23.372;2022-08-21T04:18:09;94592.78;;;20.08;100.00
8075;BME280;4080;42.676;23.372;2022-08-21T04:20:36;94583.28;;;20.10;100.00
8075;BME280;4080;42.676;23.372;2022-08-21T04:23:03;94538.84;;;19.81;100.00
8075;BME280;4080;42.676;23.372;2022-08-21T04:25:30;94574.72;;;20.05;100.00
8075;BME280;4080;42.676;23.372;2022-08-21T04:27:57;94582.63;;;20.13;100.00
8075;BME280;4080;42.676;23.372;2022-08-21T04:30:24;94553.31;;;20.05;100.00
8075;BME280;4080;42.676;23.372;2022-08-21T04:32:53;94583.50;;;20.30;100.00
8075;BME280;4080;42.676;23.372;2022-08-21T04:35:22;94592.16;;;20.39;100.00
8075;BME280;4080;42.676;23.372;2022-08-21T04:37:50;94588.94;;;20.45;100.00
8075;BME280;4080;42.676;23.372;2022-08-21T04:40:18;94578.56;;;20.32;100.00
8075;BME280;4080;42.676;23.372;2022-08-21T04:42:51;94581.91;;;20.41;100.00
8075;BME280;4080;42.676;23.372;2022-08-21T04:45:20;94583.56;;;20.45;100.00
8075;BME280;4080;42.676;23.372;2022-08-21T04:47:48;94558.25;;;20.43;100.00
8075;BME280;4080;42.676;23.372;2022-08-21T04:50:17;94596.28;;;20.76;100.00
8075;BME280;4080;42.676;23.372;2022-08-21T04:52:45;94591.94;;;21.00;100.00
8075;BME280;4080;42.676;23.372;2022-08-21T04:55:12;94597.53;;;21.23;100.00
8075;BME280;4080;42.676;23.372;2022-08-21T04:57:40;94591.50;;;21.26;100.00
8075;BME280;4080;42.676;23.372;2022-08-21T05:00:08;94589.06;;;21.36;100.00
8075;BME280;4080;42.676;23.372;2022-08-21T05:02:36;94552.03;;;21.26;100.00
8075;BME280;4080;42.676;23.372;2022-08-21T05:05:04;94595.31;;;21.56;100.00
8075;BME280;4080;42.676;23.372;2022-08-21T05:07:32;94594.34;;;21.64;100.00
8075;BME280;4080;42.676;23.372;2022-08-21T05:10:00;94580.66;;;21.69;100.00
8075;BME280;4080;42.676;23.372;2022-08-21T05:12:28;94564.91;;;21.68;100.00
8075;BME280;4080;42.676;23.372;2022-08-21T05:14:54;94584.19;;;21.89;100.00
8075;BME280;4080;42.676;23.372;2022-08-21T05:17:21;94594.81;;;22.17;100.00
8075;BME280;4080;42.676;23.372;2022-08-21T05:19:48;94590.84;;;22.46;100.00
8075;BME280;4080;42.676;23.372;2022-08-21T05:22:19;94438.44;;;21.89;100.00
8075;BME280;4080;42.676;23.372;2022-08-21T05:24:47;94588.41;;;23.41;100.00
8075;BME280;4080;42.676;23.372;2022-08-21T05:27:14;94594.81;;;23.79;100.00
8075;BME280;4080;42.676;23.372;2022-08-21T05:29:41;94597.75;;;23.93;100.00
8075;BME280;4080;42.676;23.372;2022-08-21T05:32:09;94600.31;;;23.86;100.00
8075;BME280;4080;42.676;23.372;2022-08-21T05:34:36;94603.97;;;23.74;100.00
8075;BME280;4080;42.676;23.372;2022-08-21T05:37:03;94595.63;;;23.14;100.00
8075;BME280;4080;42.676;23.372;2022-08-21T05:39:30;94591.47;;;22.78;100.00
8075;BME280;4080;42.676;23.372;2022-08-21T05:41:59;94590.28;;;22.76;100.00
8075;BME280;4080;42.676;23.372;2022-08-21T05:44:25;94586.47;;;22.96;100.00
8075;BME280;4080;42.676;23.372;2022-08-21T05:46:52;94582.72;;;23.23;100.00
8075;BME280;4080;42.676;23.372;2022-08-21T05:49:19;94584.50;;;23.58;100.00
8075;BME280;4080;42.676;23.372;2022-08-21T05:51:46;94579.25;;;23.92;100.00
8075;BME280;4080;42.676;23.372;2022-08-21T05:54:12;94576.53;;;24.18;100.00
8075;BME280;4080;42.676;23.372;2022-08-21T05:56:39;94588.97;;;24.53;100.00
8075;BME280;4080;42.676;23.372;2022-08-21T05:59:11;94563.09;;;24.48;100.00
8075;BME280;4080;42.676;23.372;2022-08-21T06:01:38;94588.88;;;24.79;100.00
8075;BME280;4080;42.676;23.372;2022-08-21T06:04:05;94588.41;;;24.70;100.00
8075;BME280;4080;42.676;23.372;2022-08-21T06:06:32;94590.41;;;24.46;100.00
8075;BME280;4080;42.676;23.372;2022-08-21T06:08:59;94587.75;;;24.20;100.00
8075;BME280;4080;42.676;23.372;2022-08-21T06:11:26;94573.88;;;23.92;100.00
8075;BME280;4080;42.676;23.372;2022-08-21T06:13:53;94580.31;;;23.87;100.00
8075;BME280;4080;42.676;23.372;2022-08-21T06:16:21;94581.22;;;23.95;100.00
8075;BME280;4080;42.676;23.372;2022-08-21T06:18:49;94581.72;;;24.04;100.00
8075;BME280;4080;42.676;23.372;2022-08-21T06:21:16;94578.09;;;24.19;100.00
8075;BME280;4080;42.676;23.372;2022-08-21T06:23:43;94582.19;;;24.66;100.00
8075;BME280;4080;42.676;23.372;2022-08-21T06:26:12;94592.13;;;24.92;100.00
8075;BME280;4080;42.676;23.372;2022-08-21T06:28:40;94594.19;;;25.02;100.00
8075;BME280;4080;42.676;23.372;2022-08-21T06:31:11;94594.72;;;25.15;100.00
8075;BME280;4080;42.676;23.372;2022-08-21T06:33:40;94596.63;;;25.11;100.00
8075;BME280;4080;42.676;23.372;2022-08-21T06:36:07;94579.78;;;24.91;100.00
8075;BME280;4080;42.676;23.372;2022-08-21T06:38:34;94594.22;;;25.05;100.00
8075;BME280;4080;42.676;23.372;2022-08-21T06:41:01;94592.13;;;25.25;100.00
8075;BME280;4080;42.676;23.372;2022-08-21T06:43:28;94596.31;;;25.63;100.00
8075;BME280;4080;42.676;23.372;2022-08-21T06:45:55;94601.25;;;25.98;100.00
8075;BME280;4080;42.676;23.372;2022-08-21T06:48:22;94600.78;;;26.41;100.00
8075;BME280;4080;42.676;23.372;2022-08-21T06:50:51;94597.06;;;26.70;100.00
8075;BME280;4080;42.676;23.372;2022-08-21T06:53:20;94600.31;;;27.04;100.00
8075;BME280;4080;42.676;23.372;2022-08-21T06:55:47;94592.19;;;27.01;100.00
8075;BME280;4080;42.676;23.372;2022-08-21T06:58:14;94601.38;;;26.92;100.00
8075;BME280;4080;42.676;23.372;2022-08-21T07:00:43;94613.75;;;26.86;100.00
8075;BME280;4080;42.676;23.372;2022-08-21T07:03:17;94588.97;;;26.77;100.00
8075;BME280;4080;42.676;23.372;2022-08-21T07:05:44;94602.66;;;27.13;100.00
8075;BME280;4080;42.676;23.372;2022-08-21T07:08:12;94624.38;;;27.34;100.00
8075;BME280;4080;42.676;23.372;2022-08-21T07:10:39;94608.50;;;27.43;100.00
8075;BME280;4080;42.676;23.372;2022-08-21T07:13:06;94596.53;;;27.51;100.00
8075;BME280;4080;42.676;23.372;2022-08-21T07:15:32;94602.38;;;27.68;100.00
8075;BME280;4080;42.676;23.372;2022-08-21T07:17:59;94609.34;;;27.76;100.00
8075;BME280;4080;42.676;23.372;2022-08-21T07:20:27;94612.84;;;27.87;100.00
8075;BME280;4080;42.676;23.372;2022-08-21T07:22:55;94610.50;;;27.75;100.00
8075;BME280;4080;42.676;23.372;2022-08-21T07:25:24;94602.75;;;27.80;100.00
8075;BME280;4080;42.676;23.372;2022-08-21T07:27:51;94608.97;;;27.95;100.00
8075;BME280;4080;42.676;23.372;2022-08-21T07:30:18;94607.78;;;27.82;100.00
8075;BME280;4080;42.676;23.372;2022-08-21T07:32:45;94598.50;;;27.76;100.00
8075;BME280;4080;42.676;23.372;2022-08-21T07:35:14;94594.22;;;28.10;100.00
8075;BME280;4080;42.676;23.372;2022-08-21T07:37:41;94586.81;;;28.47;100.00
8075;BME280;4080;42.676;23.372;2022-08-21T07:40:08;94592.53;;;28.84;100.00
8075;BME280;4080;42.676;23.372;2022-08-21T07:42:40;94608.72;;;29.05;100.00
8075;BME280;4080;42.676;23.372;2022-08-21T07:45:08;94590.09;;;29.11;100.00
8075;BME280;4080;42.676;23.372;2022-08-21T07:47:36;94554.47;;;28.98;100.00
8075;BME280;4080;42.676;23.372;2022-08-21T07:50:04;94586.13;;;29.26;99.05
8075;BME280;4080;42.676;23.372;2022-08-21T07:52:31;94589.22;;;29.28;98.81
8075;BME280;4080;42.676;23.372;2022-08-21T07:54:59;94592.44;;;29.05;100.00
8075;BME280;4080;42.676;23.372;2022-08-21T07:57:26;94586.66;;;28.96;100.00
8075;BME280;4080;42.676;23.372;2022-08-21T07:59:54;94592.91;;;28.83;100.00
8075;BME280;4080;42.676;23.372;2022-08-21T08:02:25;94592.56;;;28.66;100.00
8075;BME280;4080;42.676;23.372;2022-08-21T08:04:52;94586.47;;;28.34;100.00
8075;BME280;4080;42.676;23.372;2022-08-21T08:07:19;94589.59;;;28.00;100.00
8075;BME280;4080;42.676;23.372;2022-08-21T08:09:45;94595.41;;;27.67;100.00
8075;BME280;4080;42.676;23.372;2022-08-21T08:12:12;94585.69;;;27.44;100.00
8075;BME280;4080;42.676;23.372;2022-08-21T08:14:39;94583.31;;;27.18;100.00
8075;BME280;4080;42.676;23.372;2022-08-21T08:17:08;94588.22;;;26.87;100.00
8075;BME280;4080;42.676;23.372;2022-08-21T08:22:22;94572.09;;;26.33;100.00
8075;BME280;4080;42.676;23.372;2022-08-21T08:24:50;94575.19;;;26.27;100.00
8075;BME280;4080;42.676;23.372;2022-08-21T08:27:17;94578.75;;;26.35;100.00
8075;BME280;4080;42.676;23.372;2022-08-21T08:29:44;94579.13;;;26.34;100.00
8075;BME280;4080;42.676;23.372;2022-08-21T08:32:13;94581.91;;;26.55;100.00
8075;BME280;4080;42.676;23.372;2022-08-21T08:34:40;94577.34;;;26.70;100.00
8075;BME280;4080;42.676;23.372;2022-08-21T08:37:08;94581.63;;;26.74;100.00
8075;BME280;4080;42.676;23.372;2022-08-21T08:39:35;94575.38;;;26.59;100.00
8075;BME280;4080;42.676;23.372;2022-08-21T08:42:07;94586.09;;;26.38;100.00
8075;BME280;4080;42.676;23.372;2022-08-21T08:44:35;94580.16;;;26.18;100.00
8075;BME280;4080;42.676;23.372;2022-08-21T08:47:03;94582.78;;;26.08;100.00
8075;BME280;4080;42.676;23.372;2022-08-21T08:49:37;94574.75;;;26.22;100.00
8075;BME280;4080;42.676;23.372;2022-08-21T08:52:14;94575.66;;;26.37;100.00
8075;BME280;4080;42.676;23.372;2022-08-21T08:54:46;94569.88;;;26.42;100.00
8075;BME280;4080;42.676;23.372;2022-08-21T08:57:18;94571.09;;;26.55;100.00
8075;BME280;4080;42.676;23.372;2022-08-21T08:59:50;94528.84;;;26.33;100.00
8075;BME280;4080;42.676;23.372;2022-08-21T09:02:18;94571.84;;;26.52;100.00
8075;BME280;4080;42.676;23.372;2022-08-21T09:04:48;94566.84;;;26.54;100.00
8075;BME280;4080;42.676;23.372;2022-08-21T09:07:27;94568.38;;;26.48;100.00
8075;BME280;4080;42.676;23.372;2022-08-21T09:10:04;94558.69;;;26.47;100.00
8075;BME280;4080;42.676;23.372;2022-08-21T09:12:38;94562.56;;;26.49;100.00
8075;BME280;4080;42.676;23.372;2022-08-21T09:15:12;94544.41;;;26.50;100.00
8075;BME280;4080;42.676;23.372;2022-08-21T09:17:55;94557.56;;;26.55;100.00
8075;BME280;4080;42.676;23.372;2022-08-21T09:20:32;94545.97;;;26.54;100.00
8075;BME280;4080;42.676;23.372;2022-08-21T09:23:17;94548.75;;;26.65;100.00
8075;BME280;4080;42.676;23.372;2022-08-21T09:26:00;94545.66;;;26.70;100.00
8075;BME280;4080;42.676;23.372;2022-08-21T09:28:31;94510.44;;;26.56;100.00
8075;BME280;4080;42.676;23.372;2022-08-21T09:30:59;94538.41;;;26.96;100.00
8075;BME280;4080;42.676;23.372;2022-08-21T09:33:28;94547.00;;;27.44;100.00
8075;BME280;4080;42.676;23.372;2022-08-21T09:35:56;94542.38;;;27.76;100.00
8075;BME280;4080;42.676;23.372;2022-08-21T09:38:27;94544.69;;;27.85;100.00
8075;BME280;4080;42.676;23.372;2022-08-21T09:40:58;94546.22;;;27.97;100.00
8075;BME280;4080;42.676;23.372;2022-08-21T09:43:26;94555.53;;;27.96;100.00
8075;BME280;4080;42.676;23.372;2022-08-21T09:46:06;94532.63;;;28.18;100.00
8075;BME280;4080;42.676;23.372;2022-08-21T09:48:44;94538.81;;;28.15;100.00
8075;BME280;4080;42.676;23.372;2022-08-21T09:51:15;94546.63;;;27.99;100.00
8075;BME280;4080;42.676;23.372;2022-08-21T09:53:47;94547.03;;;27.90;100.00
8075;BME280;4080;42.676;23.372;2022-08-21T09:56:26;94542.38;;;27.69;100.00
8075;BME280;4080;42.676;23.372;2022-08-21T09:59:17;94542.72;;;27.50;100.00
8075;BME280;4080;42.676;23.372;2022-08-21T10:01:46;94534.56;;;27.11;100.00
8075;BME280;4080;42.676;23.372;2022-08-21T10:04:13;94509.66;;;26.52;100.00
8075;BME280;4080;42.676;23.372;2022-08-21T10:06:41;94527.41;;;26.42;100.00
8075;BME280;4080;42.676;23.372;2022-08-21T10:09:12;94516.41;;;26.10;100.00
8075;BME280;4080;42.676;23.372;2022-08-21T10:11:40;94501.22;;;25.88;100.00
8075;BME280;4080;42.676;23.372;2022-08-21T10:14:16;94484.78;;;25.59;100.00
8075;BME280;4080;42.676;23.372;2022-08-21T10:16:59;94520.75;;;25.67;100.00
8075;BME280;4080;42.676;23.372;2022-08-21T10:19:35;94511.75;;;25.52;100.00
8075;BME280;4080;42.676;23.372;2022-08-21T10:22:17;94509.75;;;25.42;100.00
8075;BME280;4080;42.676;23.372;2022-08-21T10:24:55;94513.22;;;25.43;100.00
8075;BME280;4080;42.676;23.372;2022-08-21T10:27:31;94512.91;;;25.55;100.00
8075;BME280;4080;42.676;23.372;2022-08-21T10:30:07;94502.97;;;25.66;100.00
8075;BME280;4080;42.676;23.372;2022-08-21T10:32:49;94505.13;;;25.97;100.00
8075;BME280;4080;42.676;23.372;2022-08-21T10:35:22;94495.19;;;26.19;100.00
8075;BME280;4080;42.676;23.372;2022-08-21T10:38:10;94501.91;;;26.43;100.00
8075;BME280;4080;42.676;23.372;2022-08-21T10:40:48;94492.63;;;26.44;100.00
8075;BME280;4080;42.676;23.372;2022-08-21T10:43:24;94500.75;;;26.51;100.00
8075;BME280;4080;42.676;23.372;2022-08-21T10:46:00;94497.34;;;26.65;100.00
8075;BME280;4080;42.676;23.372;2022-08-21T10:48:35;94499.69;;;26.84;100.00
8075;BME280;4080;42.676;23.372;2022-08-21T10:51:06;94460.25;;;26.80;100.00
8075;BME280;4080;42.676;23.372;2022-08-21T10:53:50;94499.00;;;27.23;100.00
8075;BME280;4080;42.676;23.372;2022-08-21T10:56:25;94490.50;;;27.35;100.00
8075;BME280;4080;42.676;23.372;2022-08-21T10:59:07;94491.66;;;27.45;100.00
8075;BME280;4080;42.676;23.372;2022-08-21T11:01:42;94487.03;;;27.56;100.00
8075;BME280;4080;42.676;23.372;2022-08-21T11:04:13;94465.34;;;27.60;100.00
8075;BME280;4080;42.676;23.372;2022-08-21T11:06:48;94467.28;;;27.73;100.00
8075;BME280;4080;42.676;23.372;2022-08-21T11:09:22;94436.72;;;27.69;100.00
8075;BME280;4080;42.676;23.372;2022-08-21T11:11:54;94470.25;;;28.22;100.00
8075;BME280;4080;42.676;23.372;2022-08-21T11:14:30;94473.34;;;28.31;100.00
8075;BME280;4080;42.676;23.372;2022-08-21T11:17:06;94466.31;;;28.40;100.00
8075;BME280;4080;42.676;23.372;2022-08-21T11:19:39;94462.81;;;28.47;100.00
8075;BME280;4080;42.676;23.372;2022-08-21T11:22:14;94454.09;;;28.77;100.00
8075;BME280;4080;42.676;23.372;2022-08-21T11:24:47;94400.50;;;28.33;100.00
8075;BME280;4080;42.676;23.372;2022-08-21T11:27:21;94465.34;;;28.83;100.00
8075;BME280;4080;42.676;23.372;2022-08-21T11:29:54;94464.53;;;28.93;100.00
8075;BME280;4080;42.676;23.372;2022-08-21T11:32:36;94445.25;;;28.69;99.79
8075;BME280;4080;42.676;23.372;2022-08-21T11:35:13;94455.41;;;28.58;100.00
8075;BME280;4080;42.676;23.372;2022-08-21T11:37:51;94410.25;;;28.12;100.00
8075;BME280;4080;42.676;23.372;2022-08-21T11:40:48;94453.19;;;28.35;100.00
8075;BME280;4080;42.676;23.372;2022-08-21T11:43:24;94472.13;;;28.42;98.06
8075;BME280;4080;42.676;23.372;2022-08-21T11:46:06;94460.97;;;28.15;97.02
8075;BME280;4080;42.676;23.372;2022-08-21T11:48:40;94459.44;;;28.07;99.10
8075;BME280;4080;42.676;23.372;2022-08-21T11:51:13;94453.31;;;27.96;98.46
8075;BME280;4080;42.676;23.372;2022-08-21T11:53:45;94453.34;;;27.78;99.04
8075;BME280;4080;42.676;23.372;2022-08-21T11:56:22;94437.09;;;27.53;100.00
8075;BME280;4080;42.676;23.372;2022-08-21T11:58:53;94446.41;;;27.35;100.00
8075;BME280;4080;42.676;23.372;2022-08-21T12:01:24;94442.53;;;27.18;100.00
8075;BME280;4080;42.676;23.372;2022-08-21T12:03:55;94440.56;;;26.86;100.00
8075;BME280;4080;42.676;23.372;2022-08-21T12:06:31;94437.84;;;26.72;100.00
8075;BME280;4080;42.676;23.372;2022-08-21T12:09:02;94438.56;;;26.58;100.00
8075;BME280;4080;42.676;23.372;2022-08-21T12:11:31;94417.72;;;26.63;100.00
8075;BME280;4080;42.676;23.372;2022-08-21T12:14:11;94412.72;;;26.68;100.00
8075;BME280;4080;42.676;23.372;2022-08-21T12:16:41;94402.25;;;26.56;100.00
8075;BME280;4080;42.676;23.372;2022-08-21T12:19:10;94427.00;;;26.69;100.00
8075;BME280;4080;42.676;23.372;2022-08-21T12:21:49;94416.94;;;26.55;100.00
8075;BME280;4080;42.676;23.372;2022-08-21T12:24:18;94426.59;;;26.49;100.00
8075;BME280;4080;42.676;23.372;2022-08-21T12:26:51;94425.00;;;26.34;100.00
8075;BME280;4080;42.676;23.372;2022-08-21T12:29:23;94430.75;;;26.32;100.00
8075;BME280;4080;42.676;23.372;2022-08-21T12:31:55;94431.47;;;26.18;100.00
8075;BME280;4080;42.676;23.372;2022-08-21T12:34:27;94398.16;;;25.86;100.00
8075;BME280;4080;42.676;23.372;2022-08-21T12:36:59;94439.09;;;25.95;100.00
8075;BME280;4080;42.676;23.372;2022-08-21T12:39:29;94420.91;;;25.85;100.00
8075;BME280;4080;42.676;23.372;2022-08-21T12:42:00;94432.53;;;25.96;100.00
8075;BME280;4080;42.676;23.372;2022-08-21T12:44:35;94429.78;;;25.82;100.00
8075;BME280;4080;42.676;23.372;2022-08-21T12:47:06;94403.38;;;25.61;100.00
8075;BME280;4080;42.676;23.372;2022-08-21T12:49:47;94412.72;;;25.71;100.00
8075;BME280;4080;42.676;23.372;2022-08-21T12:52:21;94415.84;;;25.73;100.00
8075;BME280;4080;42.676;23.372;2022-08-21T12:54:48;94425.06;;;25.68;100.00
8075;BME280;4080;42.676;23.372;2022-08-21T12:57:21;94417.34;;;25.66;100.00
8075;BME280;4080;42.676;23.372;2022-08-21T12:59:54;94404.16;;;25.58;100.00
8075;BME280;4080;42.676;23.372;2022-08-21T13:02:23;94414.16;;;25.50;100.00
8075;BME280;4080;42.676;23.372;2022-08-21T13:04:52;94415.28;;;25.49;100.00
8075;BME280;4080;42.676;23.372;2022-08-21T13:07:26;94394.09;;;25.51;100.00
8075;BME280;4080;42.676;23.372;2022-08-21T13:09:56;94411.84;;;25.56;100.00
8075;BME280;4080;42.676;23.372;2022-08-21T13:12:25;94415.31;;;25.56;100.00
8075;BME280;4080;42.676;23.372;2022-08-21T13:14:56;94396.38;;;25.49;100.00
8075;BME280;4080;42.676;23.372;2022-08-21T13:17:25;94406.94;;;25.68;100.00